sensor_id;sensor_type;location;lat;lon;timestamp;P1;durP1;ratioP1;P2;durP2;ratioP2
54464;SDS011;40374;49.480;20.016;2022-07-23T00:02:01;55.85;;;28.15;;
54464;SDS011;40374;49.480;20.016;2022-07-23T00:04:28;57.80;;;29.25;;
54464;SDS011;40374;49.480;20.016;2022-07-23T00:06:56;52.08;;;28.85;;
54464;SDS011;40374;49.480;20.016;2022-07-23T00:09:24;55.10;;;27.48;;
54464;SDS011;40374;49.480;20.016;2022-07-23T00:11:52;48.72;;;24.45;;
54464;SDS011;40374;49.480;20.016;2022-07-23T00:14:19;33.03;;;20.38;;
54464;SDS011;40374;49.480;20.016;2022-07-23T00:16:46;28.77;;;17.90;;
54464;SDS011;40374;49.480;20.016;2022-07-23T00:19:14;24.88;;;16.67;;
54464;SDS011;40374;49.480;20.016;2022-07-23T00:21:42;20.70;;;15.93;;
54464;SDS011;40374;49.480;20.016;2022-07-23T00:24:11;33.65;;;19.10;;
54464;SDS011;40374;49.480;20.016;2022-07-23T00:26:38;46.28;;;22.85;;
54464;SDS011;40374;49.480;20.016;2022-07-23T00:29:06;60.78;;;24.60;;
54464;SDS011;40374;49.480;20.016;2022-07-23T00:31:34;48.55;;;25.65;;
54464;SDS011;40374;49.480;20.016;2022-07-23T00:34:02;43.38;;;23.75;;
54464;SDS011;40374;49.480;20.016;2022-07-23T00:36:29;31.65;;;20.27;;
54464;SDS011;40374;49.480;20.016;2022-07-23T00:38:58;27.05;;;18.40;;
54464;SDS011;40374;49.480;20.016;2022-07-23T00:41:26;38.42;;;17.95;;
54464;SDS011;40374;49.480;20.016;2022-07-23T00:43:53;50.70;;;18.15;;
54464;SDS011;40374;49.480;20.016;2022-07-23T00:46:21;47.03;;;17.88;;
54464;SDS011;40374;49.480;20.016;2022-07-23T00:48:50;40.33;;;16.10;;
54464;SDS011;40374;49.480;20.016;2022-07-23T00:51:17;33.70;;;17.75;;
54464;SDS011;40374;49.480;20.016;2022-07-23T00:53:45;39.85;;;18.77;;
54464;SDS011;40374;49.480;20.016;2022-07-23T00:56:12;68.57;;;19.23;;
54464;SDS011;40374;49.480;20.016;2022-07-23T00:58:40;70.22;;;19.23;;
54464;SDS011;40374;49.480;20.016;2022-07-23T01:01:09;61.22;;;19.63;;
54464;SDS011;40374;49.480;20.016;2022-07-23T01:03:38;106.32;;;19.63;;
54464;SDS011;40374;49.480;20.016;2022-07-23T01:06:07;59.78;;;20.25;;
54464;SDS011;40374;49.480;20.016;2022-07-23T01:08:34;78.25;;;20.65;;
54464;SDS011;40374;49.480;20.016;2022-07-23T01:11:02;84.72;;;20.73;;
54464;SDS011;40374;49.480;20.016;2022-07-23T01:13:31;37.55;;;19.17;;
54464;SDS011;40374;49.480;20.016;2022-07-23T01:15:58;53.78;;;19.45;;
54464;SDS011;40374;49.480;20.016;2022-07-23T01:18:25;62.85;;;21.25;;
54464;SDS011;40374;49.480;20.016;2022-07-23T01:20:53;39.17;;;20.50;;
54464;SDS011;40374;49.480;20.016;2022-07-23T01:23:20;115.32;;;23.15;;
54464;SDS011;40374;49.480;20.016;2022-07-23T01:25:53;106.47;;;22.70;;
54464;SDS011;40374;49.480;20.016;2022-07-23T01:28:23;150.95;;;24.58;;
54464;SDS011;40374;49.480;20.016;2022-07-23T01:30:50;144.43;;;25.48;;
54464;SDS011;40374;49.480;20.016;2022-07-23T01:33:18;181.02;;;26.60;;
54464;SDS011;40374;49.480;20.016;2022-07-23T01:35:45;85.43;;;26.83;;
54464;SDS011;40374;49.480;20.016;2022-07-23T01:38:18;49.05;;;24.92;;
54464;SDS011;40374;49.480;20.016;2022-07-23T01:40:46;39.25;;;24.45;;
54464;SDS011;40374;49.480;20.016;2022-07-23T01:43:21;54.15;;;28.33;;
54464;SDS011;40374;49.480;20.016;2022-07-23T01:45:51;52.28;;;27.90;;
54464;SDS011;40374;49.480;20.016;2022-07-23T01:48:19;47.15;;;27.75;;
54464;SDS011;40374;49.480;20.016;2022-07-23T01:51:07;47.38;;;25.17;;
54464;SDS011;40374;49.480;20.016;2022-07-23T01:53:42;36.50;;;22.83;;
54464;SDS011;40374;49.480;20.016;2022-07-23T01:56:10;37.97;;;21.00;;
54464;SDS011;40374;49.480;20.016;2022-07-23T01:58:40;42.25;;;20.48;;
54464;SDS011;40374;49.480;20.016;2022-07-23T02:01:07;40.58;;;20.70;;
54464;SDS011;40374;49.480;20.016;2022-07-23T02:03:35;62.50;;;21.42;;
54464;SDS011;40374;49.480;20.016;2022-07-23T02:06:03;52.67;;;20.75;;
54464;SDS011;40374;49.480;20.016;2022-07-23T02:08:30;49.65;;;19.17;;
54464;SDS011;40374;49.480;20.016;2022-07-23T02:11:00;72.97;;;20.35;;
54464;SDS011;40374;49.480;20.016;2022-07-23T02:13:28;44.80;;;18.83;;
54464;SDS011;40374;49.480;20.016;2022-07-23T02:16:00;78.05;;;21.92;;
54464;SDS011;40374;49.480;20.016;2022-07-23T02:18:28;79.07;;;21.67;;
54464;SDS011;40374;49.480;20.016;2022-07-23T02:20:56;49.70;;;19.80;;
54464;SDS011;40374;49.480;20.016;2022-07-23T02:23:23;82.38;;;20.95;;
54464;SDS011;40374;49.480;20.016;2022-07-23T02:25:52;72.50;;;19.92;;
54464;SDS011;40374;49.480;20.016;2022-07-23T02:28:19;75.70;;;21.65;;
54464;SDS011;40374;49.480;20.016;2022-07-23T02:30:46;68.90;;;21.13;;
54464;SDS011;40374;49.480;20.016;2022-07-23T02:33:15;96.57;;;22.23;;
54464;SDS011;40374;49.480;20.016;2022-07-23T02:35:42;93.95;;;23.92;;
54464;SDS011;40374;49.480;20.016;2022-07-23T02:38:09;60.13;;;22.38;;
54464;SDS011;40374;49.480;20.016;2022-07-23T02:40:37;54.17;;;20.67;;
54464;SDS011;40374;49.480;20.016;2022-07-23T02:43:06;83.00;;;22.50;;
54464;SDS011;40374;49.480;20.016;2022-07-23T02:45:33;104.50;;;22.77;;
54464;SDS011;40374;49.480;20.016;2022-07-23T02:48:01;99.30;;;21.48;;
54464;SDS011;40374;49.480;20.016;2022-07-23T02:50:28;94.85;;;22.05;;
54464;SDS011;40374;49.480;20.016;2022-07-23T02:52:57;72.35;;;19.92;;
54464;SDS011;40374;49.480;20.016;2022-07-23T02:55:25;59.45;;;21.50;;
54464;SDS011;40374;49.480;20.016;2022-07-23T02:57:53;65.85;;;20.77;;
54464;SDS011;40374;49.480;20.016;2022-07-23T03:00:20;91.85;;;21.67;;
54464;SDS011;40374;49.480;20.016;2022-07-23T03:02:48;128.88;;;22.65;;
54464;SDS011;40374;49.480;20.016;2022-07-23T03:05:15;82.32;;;21.63;;
54464;SDS011;40374;49.480;20.016;2022-07-23T03:07:43;54.95;;;20.33;;
54464;SDS011;40374;49.480;20.016;2022-07-23T03:10:11;54.00;;;20.58;;
54464;SDS011;40374;49.480;20.016;2022-07-23T03:12:38;52.05;;;20.85;;
54464;SDS011;40374;49.480;20.016;2022-07-23T03:15:05;86.18;;;21.33;;
54464;SDS011;40374;49.480;20.016;2022-07-23T03:17:33;99.85;;;21.98;;
54464;SDS011;40374;49.480;20.016;2022-07-23T03:20:02;156.75;;;22.38;;
54464;SDS011;40374;49.480;20.016;2022-07-23T03:22:29;122.13;;;22.08;;
54464;SDS011;40374;49.480;20.016;2022-07-23T03:24:57;148.82;;;22.25;;
54464;SDS011;40374;49.480;20.016;2022-07-23T03:27:32;194.30;;;23.65;;
54464;SDS011;40374;49.480;20.016;2022-07-23T03:30:00;162.43;;;23.75;;
54464;SDS011;40374;49.480;20.016;2022-07-23T03:32:28;140.23;;;24.38;;
54464;SDS011;40374;49.480;20.016;2022-07-23T03:34:56;80.95;;;24.15;;
54464;SDS011;40374;49.480;20.016;2022-07-23T03:37:23;68.88;;;22.90;;
54464;SDS011;40374;49.480;20.016;2022-07-23T03:39:52;50.35;;;22.27;;
54464;SDS011;40374;49.480;20.016;2022-07-23T03:42:19;51.28;;;22.08;;
54464;SDS011;40374;49.480;20.016;2022-07-23T03:44:47;60.88;;;24.40;;
54464;SDS011;40374;49.480;20.016;2022-07-23T03:47:15;40.13;;;21.63;;
54464;SDS011;40374;49.480;20.016;2022-07-23T03:49:44;83.93;;;25.92;;
54464;SDS011;40374;49.480;20.016;2022-07-23T03:52:11;94.07;;;27.63;;
54464;SDS011;40374;49.480;20.016;2022-07-23T03:54:38;68.20;;;25.25;;
54464;SDS011;40374;49.480;20.016;2022-07-23T03:57:05;64.45;;;26.83;;
54464;SDS011;40374;49.480;20.016;2022-07-23T03:59:33;73.82;;;27.23;;
54464;SDS011;40374;49.480;20.016;2022-07-23T04:02:00;71.30;;;24.67;;
54464;SDS011;40374;49.480;20.016;2022-07-23T04:04:28;62.05;;;26.35;;
54464;SDS011;40374;49.480;20.016;2022-07-23T04:06:56;45.25;;;25.90;;
54464;SDS011;40374;49.480;20.016;2022-07-23T04:09:24;54.92;;;24.83;;
54464;SDS011;40374;49.480;20.016;2022-07-23T04:11:51;49.38;;;25.98;;
54464;SDS011;40374;49.480;20.016;2022-07-23T04:14:19;61.92;;;26.80;;
54464;SDS011;40374;49.480;20.016;2022-07-23T04:16:46;48.85;;;24.45;;
54464;SDS011;40374;49.480;20.016;2022-07-23T04:19:14;45.35;;;24.40;;
54464;SDS011;40374;49.480;20.016;2022-07-23T04:21:54;66.75;;;27.23;;
54464;SDS011;40374;49.480;20.016;2022-07-23T04:24:22;55.13;;;23.67;;
54464;SDS011;40374;49.480;20.016;2022-07-23T04:26:49;42.83;;;22.75;;
54464;SDS011;40374;49.480;20.016;2022-07-23T04:29:16;60.65;;;23.13;;
54464;SDS011;40374;49.480;20.016;2022-07-23T04:31:44;53.58;;;23.70;;
54464;SDS011;40374;49.480;20.016;2022-07-23T04:34:11;105.18;;;27.63;;
54464;SDS011;40374;49.480;20.016;2022-07-23T04:36:39;74.68;;;27.83;;
54464;SDS011;40374;49.480;20.016;2022-07-23T04:39:06;56.97;;;27.92;;
54464;SDS011;40374;49.480;20.016;2022-07-23T04:41:34;57.22;;;27.02;;
54464;SDS011;40374;49.480;20.016;2022-07-23T04:44:02;40.22;;;24.85;;
54464;SDS011;40374;49.480;20.016;2022-07-23T04:46:30;43.72;;;26.13;;
54464;SDS011;40374;49.480;20.016;2022-07-23T04:48:58;40.40;;;27.23;;
54464;SDS011;40374;49.480;20.016;2022-07-23T04:51:26;59.35;;;26.20;;
54464;SDS011;40374;49.480;20.016;2022-07-23T04:53:53;72.38;;;25.05;;
54464;SDS011;40374;49.480;20.016;2022-07-23T04:56:21;51.53;;;26.45;;
54464;SDS011;40374;49.480;20.016;2022-07-23T04:58:49;35.28;;;25.38;;
54464;SDS011;40374;49.480;20.016;2022-07-23T05:01:17;38.28;;;25.63;;
54464;SDS011;40374;49.480;20.016;2022-07-23T05:03:45;33.20;;;25.13;;
54464;SDS011;40374;49.480;20.016;2022-07-23T05:06:12;34.75;;;26.48;;
54464;SDS011;40374;49.480;20.016;2022-07-23T05:08:40;29.73;;;23.38;;
54464;SDS011;40374;49.480;20.016;2022-07-23T05:11:09;26.95;;;21.80;;
54464;SDS011;40374;49.480;20.016;2022-07-23T05:13:37;23.65;;;19.88;;
54464;SDS011;40374;49.480;20.016;2022-07-23T05:16:06;19.88;;;16.95;;
54464;SDS011;40374;49.480;20.016;2022-07-23T05:18:35;18.27;;;16.10;;
54464;SDS011;40374;49.480;20.016;2022-07-23T05:21:02;20.63;;;15.95;;
54464;SDS011;40374;49.480;20.016;2022-07-23T05:23:30;20.50;;;16.17;;
54464;SDS011;40374;49.480;20.016;2022-07-23T05:25:57;20.15;;;16.48;;
54464;SDS011;40374;49.480;20.016;2022-07-23T05:28:26;20.75;;;16.33;;
54464;SDS011;40374;49.480;20.016;2022-07-23T05:30:53;17.35;;;14.73;;
54464;SDS011;40374;49.480;20.016;2022-07-23T05:33:21;21.42;;;15.23;;
54464;SDS011;40374;49.480;20.016;2022-07-23T05:35:49;19.48;;;15.55;;
54464;SDS011;40374;49.480;20.016;2022-07-23T05:38:25;19.30;;;13.38;;
54464;SDS011;40374;49.480;20.016;2022-07-23T05:40:54;20.33;;;15.02;;
54464;SDS011;40374;49.480;20.016;2022-07-23T05:43:22;21.33;;;15.35;;
54464;SDS011;40374;49.480;20.016;2022-07-23T05:45:49;18.50;;;14.23;;
54464;SDS011;40374;49.480;20.016;2022-07-23T05:48:17;17.58;;;13.35;;
54464;SDS011;40374;49.480;20.016;2022-07-23T05:51:02;15.27;;;13.65;;
54464;SDS011;40374;49.480;20.016;2022-07-23T05:53:34;21.67;;;14.77;;
54464;SDS011;40374;49.480;20.016;2022-07-23T05:56:24;19.35;;;14.27;;
54464;SDS011;40374;49.480;20.016;2022-07-23T05:58:52;24.33;;;15.27;;
54464;SDS011;40374;49.480;20.016;2022-07-23T06:01:20;21.25;;;16.10;;
54464;SDS011;40374;49.480;20.016;2022-07-23T06:04:02;19.65;;;14.55;;
54464;SDS011;40374;49.480;20.016;2022-07-23T06:06:34;18.80;;;14.85;;
54464;SDS011;40374;49.480;20.016;2022-07-23T06:09:02;21.17;;;14.48;;
54464;SDS011;40374;49.480;20.016;2022-07-23T06:11:31;22.15;;;13.98;;
54464;SDS011;40374;49.480;20.016;2022-07-23T06:13:58;19.02;;;14.55;;
54464;SDS011;40374;49.480;20.016;2022-07-23T06:16:38;25.88;;;14.73;;
54464;SDS011;40374;49.480;20.016;2022-07-23T06:19:06;18.48;;;14.43;;
54464;SDS011;40374;49.480;20.016;2022-07-23T06:21:33;20.30;;;14.27;;
54464;SDS011;40374;49.480;20.016;2022-07-23T06:24:13;22.13;;;14.85;;
54464;SDS011;40374;49.480;20.016;2022-07-23T06:26:42;26.80;;;16.27;;
54464;SDS011;40374;49.480;20.016;2022-07-23T06:29:09;24.13;;;15.77;;
54464;SDS011;40374;49.480;20.016;2022-07-23T06:31:37;19.80;;;15.25;;
54464;SDS011;40374;49.480;20.016;2022-07-23T06:34:05;18.13;;;13.48;;
54464;SDS011;40374;49.480;20.016;2022-07-23T06:36:34;16.77;;;13.48;;
54464;SDS011;40374;49.480;20.016;2022-07-23T06:39:02;22.98;;;13.13;;
54464;SDS011;40374;49.480;20.016;2022-07-23T06:41:31;23.98;;;13.52;;
54464;SDS011;40374;49.480;20.016;2022-07-23T06:43:59;17.17;;;13.63;;
54464;SDS011;40374;49.480;20.016;2022-07-23T06:46:29;18.38;;;13.10;;
54464;SDS011;40374;49.480;20.016;2022-07-23T06:48:57;28.75;;;13.32;;
54464;SDS011;40374;49.480;20.016;2022-07-23T06:51:28;17.30;;;11.18;;
54464;SDS011;40374;49.480;20.016;2022-07-23T06:53:55;19.23;;;12.50;;
54464;SDS011;40374;49.480;20.016;2022-07-23T06:56:23;16.33;;;11.50;;
54464;SDS011;40374;49.480;20.016;2022-07-23T06:58:50;15.27;;;11.43;;
54464;SDS011;40374;49.480;20.016;2022-07-23T07:01:18;16.38;;;11.32;;
54464;SDS011;40374;49.480;20.016;2022-07-23T07:03:46;17.85;;;11.73;;
54464;SDS011;40374;49.480;20.016;2022-07-23T07:06:13;18.98;;;12.00;;
54464;SDS011;40374;49.480;20.016;2022-07-23T07:08:41;23.42;;;13.23;;
54464;SDS011;40374;49.480;20.016;2022-07-23T07:11:10;22.27;;;12.15;;
54464;SDS011;40374;49.480;20.016;2022-07-23T07:13:38;19.17;;;12.05;;
54464;SDS011;40374;49.480;20.016;2022-07-23T07:16:05;19.50;;;12.43;;
54464;SDS011;40374;49.480;20.016;2022-07-23T07:18:33;15.68;;;11.68;;
54464;SDS011;40374;49.480;20.016;2022-07-23T07:21:00;23.10;;;11.80;;
54464;SDS011;40374;49.480;20.016;2022-07-23T07:23:28;13.85;;;10.80;;
54464;SDS011;40374;49.480;20.016;2022-07-23T07:25:55;19.67;;;10.95;;
54464;SDS011;40374;49.480;20.016;2022-07-23T07:28:23;17.85;;;11.38;;
54464;SDS011;40374;49.480;20.016;2022-07-23T07:30:50;15.07;;;9.93;;
54464;SDS011;40374;49.480;20.016;2022-07-23T07:33:18;13.30;;;9.85;;
54464;SDS011;40374;49.480;20.016;2022-07-23T07:35:46;16.38;;;9.45;;
54464;SDS011;40374;49.480;20.016;2022-07-23T07:38:13;23.65;;;10.38;;
54464;SDS011;40374;49.480;20.016;2022-07-23T07:40:40;12.45;;;9.57;;
54464;SDS011;40374;49.480;20.016;2022-07-23T07:43:08;12.65;;;9.00;;
54464;SDS011;40374;49.480;20.016;2022-07-23T07:45:35;18.55;;;9.13;;
54464;SDS011;40374;49.480;20.016;2022-07-23T07:48:03;19.00;;;8.90;;
54464;SDS011;40374;49.480;20.016;2022-07-23T07:50:32;14.10;;;8.93;;
54464;SDS011;40374;49.480;20.016;2022-07-23T07:53:00;17.90;;;9.95;;
54464;SDS011;40374;49.480;20.016;2022-07-23T07:55:27;22.13;;;11.32;;
54464;SDS011;40374;49.480;20.016;2022-07-23T07:57:56;22.52;;;10.43;;
54464;SDS011;40374;49.480;20.016;2022-07-23T08:00:23;12.15;;;8.55;;
54464;SDS011;40374;49.480;20.016;2022-07-23T08:02:51;14.50;;;9.85;;
54464;SDS011;40374;49.480;20.016;2022-07-23T08:05:21;20.17;;;11.70;;
54464;SDS011;40374;49.480;20.016;2022-07-23T08:07:55;10.97;;;9.13;;
54464;SDS011;40374;49.480;20.016;2022-07-23T08:10:24;16.05;;;10.48;;
54464;SDS011;40374;49.480;20.016;2022-07-23T08:12:53;12.45;;;8.77;;
54464;SDS011;40374;49.480;20.016;2022-07-23T08:15:24;20.13;;;9.52;;
54464;SDS011;40374;49.480;20.016;2022-07-23T08:17:53;14.93;;;8.32;;
54464;SDS011;40374;49.480;20.016;2022-07-23T08:20:21;12.13;;;8.20;;
54464;SDS011;40374;49.480;20.016;2022-07-23T08:22:50;24.23;;;8.48;;
54464;SDS011;40374;49.480;20.016;2022-07-23T08:25:31;16.45;;;8.98;;
54464;SDS011;40374;49.480;20.016;2022-07-23T08:28:04;21.58;;;8.20;;
54464;SDS011;40374;49.480;20.016;2022-07-23T08:30:34;16.50;;;7.63;;
54464;SDS011;40374;49.480;20.016;2022-07-23T08:33:07;11.15;;;7.20;;
54464;SDS011;40374;49.480;20.016;2022-07-23T08:36:01;17.27;;;8.57;;
54464;SDS011;40374;49.480;20.016;2022-07-23T08:38:31;18.70;;;7.97;;
54464;SDS011;40374;49.480;20.016;2022-07-23T08:41:00;11.68;;;7.55;;
54464;SDS011;40374;49.480;20.016;2022-07-23T08:43:28;9.95;;;8.25;;
54464;SDS011;40374;49.480;20.016;2022-07-23T08:45:58;10.90;;;7.43;;
54464;SDS011;40374;49.480;20.016;2022-07-23T08:48:28;13.32;;;7.32;;
54464;SDS011;40374;49.480;20.016;2022-07-23T08:50:58;13.20;;;7.53;;
54464;SDS011;40374;49.480;20.016;2022-07-23T08:53:27;18.75;;;7.57;;
54464;SDS011;40374;49.480;20.016;2022-07-23T08:55:56;11.80;;;7.82;;
54464;SDS011;40374;49.480;20.016;2022-07-23T08:58:26;11.70;;;8.07;;
54464;SDS011;40374;49.480;20.016;2022-07-23T09:00:55;16.38;;;7.65;;
54464;SDS011;40374;49.480;20.016;2022-07-23T09:03:24;19.80;;;7.47;;
54464;SDS011;40374;49.480;20.016;2022-07-23T09:05:55;14.43;;;6.97;;
54464;SDS011;40374;49.480;20.016;2022-07-23T09:08:25;14.75;;;6.75;;
54464;SDS011;40374;49.480;20.016;2022-07-23T09:11:02;10.23;;;6.70;;
54464;SDS011;40374;49.480;20.016;2022-07-23T09:16:06;10.65;;;6.80;;
54464;SDS011;40374;49.480;20.016;2022-07-23T09:18:43;10.48;;;6.45;;
54464;SDS011;40374;49.480;20.016;2022-07-23T09:21:19;22.83;;;7.15;;
54464;SDS011;40374;49.480;20.016;2022-07-23T09:28:58;10.18;;;6.75;;
54464;SDS011;40374;49.480;20.016;2022-07-23T09:31:42;7.43;;;6.40;;
54464;SDS011;40374;49.480;20.016;2022-07-23T09:34:23;8.43;;;5.15;;
54464;SDS011;40374;49.480;20.016;2022-07-23T09:36:54;11.20;;;7.13;;
54464;SDS011;40374;49.480;20.016;2022-07-23T09:39:30;8.43;;;6.47;;
54464;SDS011;40374;49.480;20.016;2022-07-23T09:42:12;7.38;;;5.88;;
54464;SDS011;40374;49.480;20.016;2022-07-23T09:44:52;6.43;;;5.55;;
54464;SDS011;40374;49.480;20.016;2022-07-23T09:47:21;17.67;;;5.53;;
54464;SDS011;40374;49.480;20.016;2022-07-23T09:50:00;12.10;;;6.45;;
54464;SDS011;40374;49.480;20.016;2022-07-23T09:52:40;8.27;;;5.90;;
54464;SDS011;40374;49.480;20.016;2022-07-23T09:55:10;9.55;;;5.38;;
54464;SDS011;40374;49.480;20.016;2022-07-23T09:57:38;7.45;;;5.70;;
54464;SDS011;40374;49.480;20.016;2022-07-23T10:00:09;11.20;;;6.15;;
54464;SDS011;40374;49.480;20.016;2022-07-23T10:02:37;9.00;;;5.68;;
54464;SDS011;40374;49.480;20.016;2022-07-23T10:05:24;9.63;;;5.63;;
54464;SDS011;40374;49.480;20.016;2022-07-23T10:08:11;7.22;;;5.55;;
54464;SDS011;40374;49.480;20.016;2022-07-23T10:10:57;8.82;;;5.88;;
54464;SDS011;40374;49.480;20.016;2022-07-23T10:13:28;7.43;;;5.38;;
54464;SDS011;40374;49.480;20.016;2022-07-23T10:16:15;9.95;;;5.20;;
54464;SDS011;40374;49.480;20.016;2022-07-23T10:18:53;8.50;;;5.50;;
54464;SDS011;40374;49.480;20.016;2022-07-23T10:21:25;5.65;;;5.15;;
54464;SDS011;40374;49.480;20.016;2022-07-23T10:24:04;8.93;;;5.55;;
54464;SDS011;40374;49.480;20.016;2022-07-23T10:34:43;6.47;;;5.10;;
54464;SDS011;40374;49.480;20.016;2022-07-23T10:37:16;7.90;;;5.53;;
54464;SDS011;40374;49.480;20.016;2022-07-23T10:42:37;10.07;;;5.50;;
54464;SDS011;40374;49.480;20.016;2022-07-23T10:47:52;8.00;;;5.32;;
54464;SDS011;40374;49.480;20.016;2022-07-23T10:50:22;14.93;;;6.13;;
54464;SDS011;40374;49.480;20.016;2022-07-23T10:55:40;6.63;;;5.50;;
54464;SDS011;40374;49.480;20.016;2022-07-23T10:58:20;7.38;;;4.97;;
54464;SDS011;40374;49.480;20.016;2022-07-23T11:04:17;11.10;;;5.80;;
54464;SDS011;40374;49.480;20.016;2022-07-23T11:09:28;7.45;;;5.18;;
54464;SDS011;40374;49.480;20.016;2022-07-23T11:22:40;9.68;;;5.40;;
54464;SDS011;40374;49.480;20.016;2022-07-23T11:25:36;7.50;;;5.60;;
54464;SDS011;40374;49.480;20.016;2022-07-23T11:28:08;7.10;;;5.72;;
54464;SDS011;40374;49.480;20.016;2022-07-23T11:30:39;9.00;;;5.30;;
54464;SDS011;40374;49.480;20.016;2022-07-23T11:35:36;9.13;;;5.88;;
54464;SDS011;40374;49.480;20.016;2022-07-23T11:40:40;14.32;;;5.65;;
54464;SDS011;40374;49.480;20.016;2022-07-23T11:43:10;12.20;;;6.13;;
54464;SDS011;40374;49.480;20.016;2022-07-23T11:45:40;9.05;;;4.88;;
54464;SDS011;40374;49.480;20.016;2022-07-23T11:48:14;7.20;;;5.35;;
54464;SDS011;40374;49.480;20.016;2022-07-23T11:50:48;6.82;;;5.28;;
54464;SDS011;40374;49.480;20.016;2022-07-23T11:55:50;9.30;;;5.30;;
54464;SDS011;40374;49.480;20.016;2022-07-23T11:58:18;8.48;;;4.82;;
54464;SDS011;40374;49.480;20.016;2022-07-23T12:00:46;8.10;;;5.18;;
54464;SDS011;40374;49.480;20.016;2022-07-23T12:03:14;7.40;;;5.28;;
54464;SDS011;40374;49.480;20.016;2022-07-23T12:05:42;5.82;;;5.30;;
54464;SDS011;40374;49.480;20.016;2022-07-23T12:08:09;8.02;;;5.13;;
54464;SDS011;40374;49.480;20.016;2022-07-23T12:10:39;6.40;;;5.60;;
54464;SDS011;40374;49.480;20.016;2022-07-23T12:13:09;9.63;;;5.30;;
54464;SDS011;40374;49.480;20.016;2022-07-23T12:18:12;6.53;;;5.70;;
54464;SDS011;40374;49.480;20.016;2022-07-23T12:20:44;12.98;;;5.38;;
54464;SDS011;40374;49.480;20.016;2022-07-23T12:23:14;7.88;;;5.40;;
54464;SDS011;40374;49.480;20.016;2022-07-23T12:25:47;11.30;;;5.88;;
54464;SDS011;40374;49.480;20.016;2022-07-23T12:30:51;7.97;;;4.80;;
54464;SDS011;40374;49.480;20.016;2022-07-23T12:33:33;8.57;;;5.47;;
54464;SDS011;40374;49.480;20.016;2022-07-23T12:36:06;6.03;;;5.00;;
54464;SDS011;40374;49.480;20.016;2022-07-23T12:38:39;7.28;;;5.40;;
54464;SDS011;40374;49.480;20.016;2022-07-23T12:41:26;9.68;;;5.85;;
54464;SDS011;40374;49.480;20.016;2022-07-23T12:43:54;9.00;;;5.70;;
54464;SDS011;40374;49.480;20.016;2022-07-23T12:46:22;8.20;;;4.90;;
54464;SDS011;40374;49.480;20.016;2022-07-23T12:48:51;7.80;;;5.43;;
54464;SDS011;40374;49.480;20.016;2022-07-23T12:51:21;7.68;;;5.18;;
54464;SDS011;40374;49.480;20.016;2022-07-23T12:53:59;10.35;;;5.40;;
54464;SDS011;40374;49.480;20.016;2022-07-23T12:56:34;5.78;;;4.78;;
54464;SDS011;40374;49.480;20.016;2022-07-23T13:01:36;5.78;;;4.68;;
54464;SDS011;40374;49.480;20.016;2022-07-23T13:07:00;12.75;;;5.15;;
54464;SDS011;40374;49.480;20.016;2022-07-23T13:09:32;10.38;;;5.00;;
54464;SDS011;40374;49.480;20.016;2022-07-23T13:12:09;12.18;;;5.05;;
54464;SDS011;40374;49.480;20.016;2022-07-23T13:14:38;6.72;;;5.07;;
54464;SDS011;40374;49.480;20.016;2022-07-23T13:17:05;8.65;;;5.03;;
54464;SDS011;40374;49.480;20.016;2022-07-23T13:19:37;10.07;;;5.93;;
54464;SDS011;40374;49.480;20.016;2022-07-23T13:22:07;8.27;;;5.40;;
54464;SDS011;40374;49.480;20.016;2022-07-23T13:24:37;7.05;;;4.95;;
54464;SDS011;40374;49.480;20.016;2022-07-23T13:27:06;9.52;;;5.82;;
54464;SDS011;40374;49.480;20.016;2022-07-23T13:29:39;9.55;;;5.47;;
54464;SDS011;40374;49.480;20.016;2022-07-23T13:32:06;8.00;;;6.22;;
54464;SDS011;40374;49.480;20.016;2022-07-23T13:34:39;12.20;;;5.57;;
54464;SDS011;40374;49.480;20.016;2022-07-23T13:37:08;10.00;;;6.55;;
54464;SDS011;40374;49.480;20.016;2022-07-23T13:39:36;7.90;;;6.22;;
54464;SDS011;40374;49.480;20.016;2022-07-23T13:42:05;7.65;;;6.10;;
54464;SDS011;40374;49.480;20.016;2022-07-23T13:44:34;7.45;;;6.47;;
54464;SDS011;40374;49.480;20.016;2022-07-23T13:47:02;10.63;;;6.63;;
54464;SDS011;40374;49.480;20.016;2022-07-23T13:49:31;10.60;;;6.53;;
54464;SDS011;40374;49.480;20.016;2022-07-23T13:52:01;13.25;;;6.68;;
54464;SDS011;40374;49.480;20.016;2022-07-23T13:54:34;18.02;;;6.38;;
54464;SDS011;40374;49.480;20.016;2022-07-23T13:57:02;8.13;;;6.35;;
54464;SDS011;40374;49.480;20.016;2022-07-23T13:59:29;10.23;;;6.68;;
54464;SDS011;40374;49.480;20.016;2022-07-23T14:01:57;9.90;;;6.93;;
54464;SDS011;40374;49.480;20.016;2022-07-23T14:04:45;15.88;;;7.03;;
54464;SDS011;40374;49.480;20.016;2022-07-23T14:07:12;11.30;;;7.07;;
54464;SDS011;40374;49.480;20.016;2022-07-23T14:09:39;10.88;;;7.88;;
54464;SDS011;40374;49.480;20.016;2022-07-23T14:12:07;9.98;;;7.25;;
54464;SDS011;40374;49.480;20.016;2022-07-23T14:14:37;12.25;;;7.55;;
54464;SDS011;40374;49.480;20.016;2022-07-23T14:17:04;16.77;;;7.78;;
54464;SDS011;40374;49.480;20.016;2022-07-23T14:19:33;12.85;;;8.15;;
54464;SDS011;40374;49.480;20.016;2022-07-23T14:22:01;10.40;;;7.13;;
54464;SDS011;40374;49.480;20.016;2022-07-23T14:24:29;17.02;;;8.30;;
54464;SDS011;40374;49.480;20.016;2022-07-23T14:27:01;13.75;;;8.40;;
54464;SDS011;40374;49.480;20.016;2022-07-23T14:29:31;11.75;;;7.50;;
54464;SDS011;40374;49.480;20.016;2022-07-23T14:32:00;11.98;;;8.10;;
54464;SDS011;40374;49.480;20.016;2022-07-23T14:34:29;12.57;;;7.95;;
54464;SDS011;40374;49.480;20.016;2022-07-23T14:36:57;16.00;;;8.73;;
54464;SDS011;40374;49.480;20.016;2022-07-23T14:39:24;14.73;;;9.10;;
54464;SDS011;40374;49.480;20.016;2022-07-23T14:41:53;14.82;;;11.45;;
54464;SDS011;40374;49.480;20.016;2022-07-23T14:44:21;14.32;;;9.43;;
54464;SDS011;40374;49.480;20.016;2022-07-23T14:46:48;13.18;;;8.80;;
54464;SDS011;40374;49.480;20.016;2022-07-23T14:49:16;14.10;;;9.07;;
54464;SDS011;40374;49.480;20.016;2022-07-23T14:51:44;19.10;;;7.72;;
54464;SDS011;40374;49.480;20.016;2022-07-23T14:54:11;15.48;;;8.68;;
54464;SDS011;40374;49.480;20.016;2022-07-23T14:56:39;25.05;;;11.23;;
54464;SDS011;40374;49.480;20.016;2022-07-23T14:59:09;16.27;;;9.60;;
54464;SDS011;40374;49.480;20.016;2022-07-23T15:01:42;13.38;;;10.10;;
54464;SDS011;40374;49.480;20.016;2022-07-23T15:04:10;20.50;;;10.02;;
54464;SDS011;40374;49.480;20.016;2022-07-23T15:06:58;14.23;;;9.90;;
54464;SDS011;40374;49.480;20.016;2022-07-23T15:09:25;17.02;;;11.77;;
54464;SDS011;40374;49.480;20.016;2022-07-23T15:11:55;16.33;;;10.75;;
54464;SDS011;40374;49.480;20.016;2022-07-23T15:14:23;14.88;;;10.40;;
54464;SDS011;40374;49.480;20.016;2022-07-23T15:16:57;12.02;;;10.23;;
54464;SDS011;40374;49.480;20.016;2022-07-23T15:19:25;13.02;;;10.20;;
54464;SDS011;40374;49.480;20.016;2022-07-23T15:21:56;16.98;;;11.10;;
54464;SDS011;40374;49.480;20.016;2022-07-23T15:24:28;13.68;;;10.20;;
54464;SDS011;40374;49.480;20.016;2022-07-23T15:26:57;15.70;;;10.52;;
54464;SDS011;40374;49.480;20.016;2022-07-23T15:29:25;15.43;;;10.73;;
54464;SDS011;40374;49.480;20.016;2022-07-23T15:31:54;17.77;;;11.15;;